Alba, TX

6:52 PM CDT on May 26, 2017 (GMT -0500)
Ray Branch - Lake Fork | | Change Station
Active Advisory: Lake Wind Advisory

Elev 420 ft 32.81 °N, 95.58 °W | Updated 12 minutes ago

Mostly Cloudy
Mostly Cloudy
86.0 °F
Feels Like 95 °F
N
1.0
Wind Variable Wind from WNW
Gusts 4.0 mph

Today
High -- | Low -- °F
--% Chance of Precip.
Yesterday
High -- | Low -- °F
Precip. -- in
Pressure 29.80 in
Visibility 10.0 miles
Clouds Overcast 4700 ft
Heat Index 95 °F
Dew Point 75 °F
Humidity 70%
Rainfall 0.00 in
Snow Depth Not available.
6:17 AM 8:22 PM
New Moon, 2% visible
METAR KJDD 262335Z AUTO 18006KT 10SM OVC047 30/23 A2980 RMK AO2
Pressure 29.80 in
Visibility 10.0 miles
Clouds Overcast 4700 ft
Heat Index 95 °F
Dew Point 75 °F
Humidity 70%
Rainfall 0.00 in
Snow Depth Not available.
6:17 AM 8:22 PM
New Moon, 2% visible
METAR KJDD 262335Z AUTO 18006KT 10SM OVC047 30/23 A2980 RMK AO2

Get Your Daily Forecast Email!

Thanks for signing up!

Be on the lookout for a verification email in your inbox.

You'll start receiving severe weather alerts in your inbox..

×

10-Day Weather Forecast

Almanac

Astronomy

May. 26, 2017 Rise Set
Actual Time
Civil Twilight
Nautical Twilight
Astronomical Twilight
Moon
Length of Visible Light
Length of Day
Tomorrow will be .
, % of the Moon is Illuminated

Today's Extremes

State Highs State Lows

Community

WunderPhotos

Category 6

Welcome to Category 6. This is the collective home for Weather Underground's featured writeups by Dr. Jeff Masters (right), Bob Henson (left), Chris Burt, and other regular contributors.

Nearby

Air Quality

  Air Quality AQ Index Pollutant
Not available.

Snow Depth

Station Depth Elevation

Earthquake Activity

City Distance Mag. Time & Date
Minimum magnitude displayed is 2.5.

Coastal Water Temperatures

Place Temperature

Stations

Nearby Weather Stations

Station Location Temp. Windchill Dew Point Humidity Wind Precip. Elev Updated Type
                   

Watches & Warnings

Lake Wind Advisory
Issued: 3:29 AM CDT May. 26, 2017 – National Weather Service

... Lake Wind Advisory in effect from 10 am this morning to 7 PM
CDT this evening...

The National Weather Service in Shreveport has issued a lake Wind
Advisory, which is in effect from 10 am this morning to 7 PM CDT
this evening.

* Event... a nearby surface low pressure system will cause a
tightened pressure gradient resulting in southerly wind speeds
increasing to between 15 to 20 mph, with gusts of 25 to 30 mph.

* Timing... starting around mid-morning through early evening.

* Impact... boaters should exercise caution on area lakes and
waterways due to rough chop conditions which can capsize small
craft. East and west bound high profile vehicles will be
affected by the winds and should be alert for sudden high wind
gusts.

Precautionary/preparedness actions...

A lake Wind Advisory indicates that winds will cause rough chop
on area lakes. Small boats will be especially prone to capsizing.



29